createdAt,value
2019-04-27T00:01:10.466Z,12.10
2019-04-27T00:03:44.837Z,12.10
2019-04-27T00:06:15.008Z,12.10
2019-04-27T00:08:49.620Z,12.10
2019-04-27T00:11:23.045Z,12.20
2019-04-27T00:13:53.584Z,12.20
2019-04-27T00:16:50.519Z,12.20
2019-04-27T00:19:36.538Z,12.30
2019-04-27T00:22:16.078Z,12.20
2019-04-27T00:24:44.950Z,12.20
2019-04-27T00:27:13.738Z,12.20
2019-04-27T00:29:43.276Z,12.10
2019-04-27T00:32:13.157Z,12.20
2019-04-27T00:34:43.135Z,12.20
2019-04-27T00:37:35.786Z,12.10
2019-04-27T00:40:15.525Z,12.10
2019-04-27T00:42:44.371Z,12.00
2019-04-27T00:45:13.984Z,12.00
2019-04-27T00:47:54.723Z,12.00
2019-04-27T00:50:14.344Z,12.00
2019-04-27T00:52:43.126Z,12.00
2019-04-27T00:55:13.277Z,12.10
2019-04-27T00:58:07.484Z,12.00
2019-04-27T01:00:53.873Z,12.00
2019-04-27T01:03:28.670Z,12.00
2019-04-27T01:05:57.702Z,12.10
2019-04-27T01:08:26.473Z,12.10
2019-04-27T01:10:55.263Z,12.00
2019-04-27T01:13:24.391Z,12.00
2019-04-27T01:15:54.124Z,12.00
2019-04-27T01:18:23.023Z,12.00
2019-04-27T01:20:51.999Z,12.10
2019-04-27T01:23:20.770Z,11.90
2019-04-27T01:26:11.656Z,12.00
2019-04-27T01:28:46.018Z,12.00
2019-04-27T01:31:15.070Z,11.90
2019-04-27T01:33:44.475Z,11.90
2019-04-27T01:36:13.507Z,11.90
2019-04-27T01:38:42.367Z,11.80
2019-04-27T01:41:11.158Z,11.90
2019-04-27T01:43:40.246Z,11.90
2019-04-27T01:46:09.382Z,11.90
2019-04-27T01:48:38.727Z,12.00
2019-04-27T01:51:09.228Z,11.90
2019-04-27T01:53:38.991Z,11.90
2019-04-27T01:56:09.232Z,11.80
2019-04-27T01:58:39.237Z,11.80
2019-04-27T02:01:28.711Z,11.80
2019-04-27T02:04:09.242Z,11.80
2019-04-27T02:06:38.617Z,11.70
2019-04-27T02:09:10.421Z,11.70
2019-04-27T02:11:39.288Z,11.80
2019-04-27T02:14:09.499Z,11.80
2019-04-27T02:16:39.230Z,11.80
2019-04-27T02:19:11.023Z,11.70
2019-04-27T02:21:39.274Z,11.70
2019-04-27T02:24:09.739Z,11.70
2019-04-27T02:26:39.850Z,11.70
2019-04-27T02:29:30.966Z,11.60
2019-04-27T02:32:20.307Z,11.60
2019-04-27T02:35:00.174Z,11.60
2019-04-27T02:37:30.387Z,11.50
2019-04-27T02:40:00.201Z,11.50
2019-04-27T02:42:33.976Z,11.50
2019-04-27T02:45:02.863Z,11.50
2019-04-27T02:47:31.972Z,11.50
2019-04-27T02:50:01.067Z,11.50
2019-04-27T02:52:40.297Z,11.60
2019-04-27T02:55:09.525Z,11.60
2019-04-27T02:57:39.928Z,11.60
2019-04-27T03:00:10.474Z,11.40
2019-04-27T03:02:43.893Z,11.50
2019-04-27T03:05:22.447Z,11.50
2019-04-27T03:07:51.220Z,11.50
2019-04-27T03:10:20.460Z,11.50
2019-04-27T03:12:55.732Z,11.40
2019-04-27T03:15:36.871Z,11.50
2019-04-27T03:18:13.550Z,11.40
2019-04-27T03:20:55.027Z,11.40
2019-04-27T03:23:23.878Z,11.50
2019-04-27T03:26:19.573Z,11.40
2019-04-27T03:28:50.285Z,11.40
2019-04-27T03:31:21.443Z,11.50
2019-04-27T03:33:54.823Z,11.50
2019-04-27T03:36:21.631Z,11.40
2019-04-27T03:38:50.698Z,11.40
2019-04-27T03:41:20.030Z,11.40
2019-04-27T03:43:50.310Z,11.60
2019-04-27T03:46:20.519Z,11.50
2019-04-27T03:48:50.412Z,11.50
2019-04-27T03:51:44.445Z,11.50
2019-04-27T03:54:31.901Z,11.60
2019-04-27T03:57:04.704Z,11.50
2019-04-27T03:59:56.118Z,11.50
2019-04-27T04:02:25.061Z,11.50
2019-04-27T04:04:53.906Z,11.50
2019-04-27T04:07:23.196Z,11.50
2019-04-27T04:09:52.034Z,11.40
2019-04-27T04:12:30.373Z,11.40
2019-04-27T04:15:00.007Z,11.30
2019-04-27T04:17:30.776Z,11.30
2019-04-27T04:20:01.931Z,11.40
2019-04-27T04:22:31.769Z,11.40
2019-04-27T04:25:00.927Z,11.40
2019-04-27T04:27:30.211Z,11.40
2019-04-27T04:29:59.565Z,11.40
2019-04-27T04:32:29.847Z,11.40
2019-04-27T04:35:20.742Z,11.30
2019-04-27T04:37:52.147Z,11.30
2019-04-27T04:40:23.169Z,11.30
2019-04-27T04:43:00.280Z,11.30
2019-04-27T04:45:50.106Z,11.40
2019-04-27T04:48:20.088Z,11.40
2019-04-27T04:50:50.059Z,11.40
2019-04-27T04:53:20.610Z,11.50
2019-04-27T04:55:50.060Z,11.50
2019-04-27T04:58:20.937Z,11.40
2019-04-27T05:00:50.174Z,11.50
2019-04-27T05:03:21.394Z,11.60
2019-04-27T05:05:50.241Z,11.60
2019-04-27T05:08:19.827Z,11.70
2019-04-27T05:10:49.669Z,11.70
2019-04-27T05:13:19.470Z,11.70
2019-04-27T05:15:48.779Z,11.90
2019-04-27T05:18:19.203Z,11.90
2019-04-27T05:21:13.246Z,12.00
2019-04-27T05:23:42.092Z,12.10
2019-04-27T05:26:10.939Z,12.10
2019-04-27T05:28:40.820Z,12.10
2019-04-27T05:31:09.675Z,12.20
2019-04-27T05:33:38.912Z,12.10
2019-04-27T05:36:09.146Z,12.10
2019-04-27T05:38:39.878Z,12.10
2019-04-27T05:41:09.709Z,12.20
2019-04-27T05:43:49.074Z,12.20
2019-04-27T05:46:49.346Z,12.30
2019-04-27T05:49:44.435Z,12.20
2019-04-27T05:52:29.355Z,12.30
2019-04-27T05:54:59.482Z,12.30
2019-04-27T05:57:31.422Z,12.30
2019-04-27T06:00:02.318Z,12.30
2019-04-27T06:02:30.934Z,12.30
2019-04-27T06:05:00.251Z,12.40
2019-04-27T06:07:29.649Z,12.50
2019-04-27T06:09:59.857Z,12.60
2019-04-27T06:12:29.763Z,12.60
2019-04-27T06:14:59.994Z,12.70
2019-04-27T06:17:48.505Z,12.70
2019-04-27T06:20:18.847Z,12.80
2019-04-27T06:22:48.920Z,12.80
2019-04-27T06:25:21.161Z,12.90
2019-04-27T06:27:49.554Z,13.00
2019-04-27T06:30:19.484Z,13.00
2019-04-27T06:32:49.482Z,13.00
2019-04-27T06:35:18.778Z,13.00
2019-04-27T06:37:49.288Z,13.10
2019-04-27T06:40:18.834Z,13.10
2019-04-27T06:42:48.644Z,13.20
2019-04-27T06:45:19.556Z,13.30
2019-04-27T06:47:48.839Z,13.40
2019-04-27T06:50:19.609Z,13.50
2019-04-27T06:52:49.075Z,13.50
2019-04-27T06:55:18.878Z,13.60
2019-04-27T06:57:49.099Z,13.70
2019-04-27T07:00:18.984Z,13.60
2019-04-27T07:02:49.297Z,13.70
2019-04-27T07:05:20.181Z,13.80
2019-04-27T07:07:49.299Z,14.00
2019-04-27T07:10:18.598Z,14.10
2019-04-27T07:12:49.078Z,14.20
2019-04-27T07:15:20.172Z,14.10
2019-04-27T07:17:49.306Z,14.20
2019-04-27T07:20:18.923Z,14.20
2019-04-27T07:22:49.532Z,14.20
2019-04-27T07:25:18.971Z,14.30
2019-04-27T07:27:49.368Z,14.40
2019-04-27T07:30:19.100Z,14.50
2019-04-27T07:32:48.880Z,14.50
2019-04-27T07:35:19.509Z,14.50
2019-04-27T07:37:48.980Z,14.60
2019-04-27T07:40:18.784Z,14.60
2019-04-27T07:42:50.868Z,14.70
2019-04-27T07:45:25.610Z,14.80
2019-04-27T07:47:54.896Z,14.80
2019-04-27T07:50:23.987Z,14.80
2019-04-27T07:52:53.131Z,14.80
2019-04-27T07:55:21.904Z,15.00
2019-04-27T07:57:51.034Z,15.00
2019-04-27T08:00:20.235Z,15.00
2019-04-27T08:02:49.078Z,15.10
2019-04-27T08:05:19.206Z,15.20
2019-04-27T08:07:49.179Z,15.30
2019-04-27T08:10:19.373Z,15.30
2019-04-27T08:12:49.827Z,15.50
2019-04-27T08:15:19.029Z,15.50
2019-04-27T08:17:49.277Z,15.60
2019-04-27T08:20:20.858Z,15.60
2019-04-27T08:22:49.681Z,15.80
2019-04-27T08:25:19.001Z,15.80
2019-04-27T08:28:00.499Z,15.80
2019-04-27T08:30:51.436Z,15.80
2019-04-27T08:33:20.812Z,16.00
2019-04-27T08:35:50.002Z,16.10
2019-04-27T08:38:20.604Z,16.20
2019-04-27T08:40:49.582Z,16.50
2019-04-27T08:43:19.117Z,16.50
2019-04-27T08:45:48.967Z,16.70
2019-04-27T08:48:31.467Z,16.80
2019-04-27T08:50:48.747Z,16.90
2019-04-27T08:53:18.610Z,16.80
2019-04-27T08:55:49.298Z,16.80
2019-04-27T08:58:21.082Z,17.00
2019-04-27T09:00:49.096Z,17.10
2019-04-27T09:03:19.338Z,17.20
2019-04-27T09:05:49.042Z,17.40
2019-04-27T09:08:22.874Z,17.50
2019-04-27T09:11:08.987Z,17.60
2019-04-27T09:13:53.327Z,17.60
2019-04-27T09:16:28.897Z,17.80
2019-04-27T09:19:01.588Z,18.00
2019-04-27T09:21:49.758Z,18.30
2019-04-27T09:24:18.803Z,18.30
2019-04-27T09:26:49.212Z,18.40
2019-04-27T09:29:19.743Z,18.40
2019-04-27T09:31:49.462Z,18.50
2019-04-27T09:34:18.955Z,18.60
2019-04-27T09:36:48.268Z,18.60
2019-04-27T09:39:17.071Z,18.70
2019-04-27T09:41:48.271Z,18.60
2019-04-27T09:44:16.979Z,18.70
2019-04-27T09:46:47.545Z,18.80
2019-04-27T09:49:16.743Z,18.70
2019-04-27T09:51:46.057Z,18.80
2019-04-27T09:54:15.933Z,18.90
2019-04-27T09:56:46.595Z,19.00
2019-04-27T09:59:16.013Z,19.00
2019-04-27T10:01:46.503Z,19.00
2019-04-27T10:04:17.460Z,19.00
2019-04-27T10:06:48.773Z,18.90
2019-04-27T10:09:17.620Z,19.00
2019-04-27T10:11:46.770Z,19.10
2019-04-27T10:14:16.371Z,19.10
2019-04-27T10:16:46.921Z,19.10
2019-04-27T10:19:28.248Z,19.30
2019-04-27T10:21:46.797Z,19.30
2019-04-27T10:24:15.713Z,19.40
2019-04-27T10:26:44.920Z,19.40
2019-04-27T10:29:14.009Z,19.30
2019-04-27T10:31:43.107Z,19.30
2019-04-27T10:34:11.887Z,19.20
2019-04-27T10:36:40.946Z,19.20
2019-04-27T10:39:13.298Z,19.30
2019-04-27T10:41:42.093Z,19.20
2019-04-27T10:44:11.547Z,19.30
2019-04-27T10:46:40.490Z,19.40
2019-04-27T10:49:09.703Z,19.40
2019-04-27T10:51:38.495Z,19.50
2019-04-27T10:54:08.055Z,19.50
2019-04-27T10:56:36.869Z,19.50
2019-04-27T10:59:09.467Z,19.60
2019-04-27T11:01:36.893Z,19.70
2019-04-27T11:04:20.983Z,19.90
2019-04-27T11:06:56.318Z,20.00
2019-04-27T11:09:25.734Z,19.80
2019-04-27T11:11:56.592Z,19.70
2019-04-27T11:14:26.176Z,19.90
2019-04-27T11:16:56.131Z,19.70
2019-04-27T11:19:26.761Z,19.50
2019-04-27T11:21:55.706Z,19.40
2019-04-27T11:24:24.900Z,19.20
2019-04-27T11:26:53.682Z,19.10
2019-04-27T11:29:23.090Z,19.10
2019-04-27T11:31:52.494Z,19.10
2019-04-27T11:34:23.255Z,19.20
2019-04-27T11:36:58.907Z,19.20
2019-04-27T11:39:28.495Z,19.30
2019-04-27T11:41:57.575Z,19.30
2019-04-27T11:44:26.799Z,19.50
2019-04-27T11:46:56.000Z,19.60
2019-04-27T11:49:25.771Z,19.60
2019-04-27T11:51:56.640Z,19.70
2019-04-27T11:54:27.424Z,19.70
2019-04-27T11:56:56.391Z,19.70
2019-04-27T11:59:27.036Z,19.80
2019-04-27T12:01:56.278Z,19.80
2019-04-27T12:04:26.286Z,19.90
2019-04-27T12:06:56.466Z,20.00
2019-04-27T12:09:25.723Z,20.10
2019-04-27T12:11:55.900Z,20.10
2019-04-27T12:14:25.139Z,19.90
2019-04-27T12:16:56.097Z,19.80
2019-04-27T12:19:26.704Z,19.80
2019-04-27T12:21:56.495Z,20.00
2019-04-27T12:24:26.712Z,19.90
2019-04-27T12:27:02.355Z,19.80
2019-04-27T12:29:50.939Z,19.70
2019-04-27T12:32:20.098Z,19.50
2019-04-27T12:34:48.871Z,19.10
2019-04-27T12:37:17.669Z,18.80
2019-04-27T12:39:46.454Z,18.60
2019-04-27T12:42:16.041Z,18.40
2019-04-27T12:44:45.515Z,18.10
2019-04-27T12:47:16.213Z,17.90
2019-04-27T12:49:45.279Z,17.70
2019-04-27T12:52:15.872Z,17.50
2019-04-27T12:54:51.011Z,17.30
2019-04-27T12:57:38.231Z,17.20
2019-04-27T13:00:22.792Z,17.30
2019-04-27T13:02:51.603Z,17.30
2019-04-27T13:05:20.520Z,17.30
2019-04-27T13:07:49.559Z,17.40
2019-04-27T13:10:18.474Z,17.40
2019-04-27T13:12:47.266Z,17.40
2019-04-27T13:15:17.258Z,17.40
2019-04-27T13:17:46.038Z,17.50
2019-04-27T13:20:16.454Z,17.40
2019-04-27T13:22:45.903Z,17.50
2019-04-27T13:25:15.378Z,17.50
2019-04-27T13:27:44.170Z,17.60
2019-04-27T13:30:13.488Z,17.70
2019-04-27T13:32:42.342Z,17.60
2019-04-27T13:35:11.392Z,17.40
2019-04-27T13:37:42.188Z,17.30
2019-04-27T13:40:13.966Z,17.20
2019-04-27T13:42:58.610Z,17.20
2019-04-27T13:45:50.123Z,17.10
2019-04-27T13:48:30.078Z,17.20
2019-04-27T13:51:00.518Z,17.20
2019-04-27T13:53:29.604Z,16.90
2019-04-27T13:56:00.427Z,16.80
2019-04-27T13:58:29.528Z,16.80
2019-04-27T14:00:58.611Z,16.90
2019-04-27T14:03:27.482Z,17.00
2019-04-27T14:05:56.919Z,17.00
2019-04-27T14:08:26.270Z,17.10
2019-04-27T14:10:55.043Z,17.00
2019-04-27T14:13:23.851Z,17.00
2019-04-27T14:15:53.091Z,17.00
2019-04-27T14:18:21.878Z,16.90
2019-04-27T14:20:50.918Z,16.90
2019-04-27T14:23:21.628Z,17.00
2019-04-27T14:25:50.706Z,16.90
2019-04-27T14:28:19.799Z,16.90
2019-04-27T14:30:48.895Z,16.80
2019-04-27T14:33:18.585Z,16.80
2019-04-27T14:35:49.885Z,16.70
2019-04-27T14:38:19.201Z,16.60
2019-04-27T14:40:50.406Z,16.30
2019-04-27T14:43:18.998Z,16.00
2019-04-27T14:45:48.648Z,15.80
2019-04-27T14:48:18.523Z,15.80
2019-04-27T14:50:48.562Z,15.90
2019-04-27T14:53:18.535Z,15.80
2019-04-27T14:55:48.994Z,15.80
2019-04-27T14:58:19.244Z,15.70
2019-04-27T15:00:49.835Z,15.50
2019-04-27T15:03:18.820Z,15.20
2019-04-27T15:05:49.683Z,15.00
2019-04-27T15:08:18.834Z,15.10
2019-04-27T15:10:48.346Z,15.10
2019-04-27T15:13:18.708Z,15.10
2019-04-27T15:15:47.727Z,15.20
2019-04-27T15:18:16.783Z,15.30
2019-04-27T15:20:46.711Z,15.20
2019-04-27T15:23:15.819Z,15.10
2019-04-27T15:25:47.052Z,15.00
2019-04-27T15:28:17.852Z,15.10
2019-04-27T15:31:22.357Z,15.20
2019-04-27T15:34:11.080Z,15.20
2019-04-27T15:37:03.176Z,15.30
2019-04-27T15:40:04.224Z,15.30
2019-04-27T15:42:41.654Z,15.30
2019-04-27T15:45:12.021Z,15.10
2019-04-27T15:47:42.524Z,15.10
2019-04-27T15:50:12.524Z,15.00
2019-04-27T15:52:41.442Z,15.10
2019-04-27T15:55:31.068Z,15.10
2019-04-27T15:57:42.637Z,15.20
2019-04-27T16:00:20.885Z,15.20
2019-04-27T16:02:49.359Z,15.10
2019-04-27T16:05:19.170Z,15.10
2019-04-27T16:07:48.165Z,15.10
2019-04-27T16:10:17.724Z,15.20
2019-04-27T16:13:05.764Z,15.20
2019-04-27T16:15:19.074Z,15.30
2019-04-27T16:17:53.309Z,15.30
2019-04-27T16:20:22.074Z,15.20
2019-04-27T16:22:49.758Z,15.10
2019-04-27T16:25:18.710Z,15.20
2019-04-27T16:27:48.997Z,15.00
2019-04-27T16:30:20.549Z,14.40
2019-04-27T16:32:49.060Z,14.10
2019-04-27T16:35:19.461Z,13.70
2019-04-27T16:38:00.144Z,13.40
2019-04-27T16:40:30.120Z,13.20
2019-04-27T16:42:59.050Z,13.10
2019-04-27T16:45:28.108Z,13.10
2019-04-27T16:47:59.448Z,12.90
2019-04-27T16:50:28.871Z,12.80
2019-04-27T16:53:00.953Z,12.70
2019-04-27T16:55:34.164Z,12.80
2019-04-27T16:57:59.981Z,13.00
2019-04-27T17:00:30.324Z,13.00
2019-04-27T17:03:02.728Z,12.90
2019-04-27T17:05:34.494Z,12.90
2019-04-27T17:08:00.930Z,12.80
2019-04-27T17:10:29.813Z,12.80
2019-04-27T17:12:59.130Z,12.80
2019-04-27T17:15:53.482Z,12.90
2019-04-27T17:18:33.719Z,12.90
2019-04-27T17:21:15.867Z,12.80
2019-04-27T17:23:33.393Z,12.60
2019-04-27T17:26:09.564Z,12.40
2019-04-27T17:28:39.302Z,12.50
2019-04-27T17:31:12.651Z,12.50
2019-04-27T17:33:44.594Z,12.60
2019-04-27T17:36:16.242Z,12.70
2019-04-27T17:38:47.323Z,12.70
2019-04-27T17:41:14.037Z,12.70
2019-04-27T17:43:43.010Z,12.70
2019-04-27T17:46:13.184Z,12.70
2019-04-27T17:48:42.426Z,12.60
2019-04-27T17:51:11.623Z,12.50
2019-04-27T17:53:40.415Z,12.50
2019-04-27T17:56:09.811Z,12.50
2019-04-27T17:58:39.649Z,12.40
2019-04-27T18:01:13.977Z,12.30
2019-04-27T18:03:41.591Z,12.10
2019-04-27T18:06:10.526Z,12.00
2019-04-27T18:08:40.346Z,12.00
2019-04-27T18:11:09.354Z,12.20
2019-04-27T18:13:38.773Z,12.20
2019-04-27T18:16:09.181Z,12.10
2019-04-27T18:18:51.419Z,12.10
2019-04-27T18:21:24.931Z,12.10
2019-04-27T18:23:58.288Z,12.00
2019-04-27T18:26:48.829Z,11.90
2019-04-27T18:29:09.003Z,12.00
2019-04-27T18:31:38.375Z,12.00
2019-04-27T18:34:09.929Z,12.10
2019-04-27T18:36:43.764Z,12.10
2019-04-27T18:39:12.224Z,12.00
2019-04-27T18:41:44.420Z,11.90
2019-04-27T18:44:11.233Z,11.90
2019-04-27T18:46:40.264Z,11.80
2019-04-27T18:49:30.649Z,11.80
2019-04-27T18:52:12.845Z,11.80
2019-04-27T18:54:42.271Z,11.70
2019-04-27T18:57:15.018Z,11.70
2019-04-27T18:59:41.589Z,11.50
2019-04-27T19:02:10.446Z,11.40
2019-04-27T19:04:39.230Z,11.50
2019-04-27T19:07:08.734Z,11.50
2019-04-27T19:09:37.774Z,11.50
2019-04-27T19:12:06.822Z,11.50
2019-04-27T19:14:35.590Z,11.70
2019-04-27T19:17:04.452Z,11.60
2019-04-27T19:19:33.214Z,11.60
2019-04-27T19:22:02.062Z,11.50
2019-04-27T19:24:31.070Z,11.60
2019-04-27T19:27:17.692Z,11.60
2019-04-27T19:29:53.134Z,11.50
2019-04-27T19:32:22.233Z,11.40
2019-04-27T19:34:50.994Z,11.40
2019-04-27T19:37:19.822Z,11.40
2019-04-27T19:39:49.832Z,11.30
2019-04-27T19:42:20.330Z,11.40
2019-04-27T19:44:49.427Z,11.40
2019-04-27T19:47:18.453Z,11.40
2019-04-27T19:49:47.937Z,11.60
2019-04-27T19:52:18.329Z,11.60
2019-04-27T19:54:49.311Z,11.70
2019-04-27T19:57:31.158Z,11.70
2019-04-27T19:59:53.032Z,11.70
2019-04-27T20:02:22.382Z,11.60
2019-04-27T20:04:58.498Z,11.50
2019-04-27T20:07:28.578Z,11.50
2019-04-27T20:09:59.666Z,11.50
2019-04-27T20:12:28.593Z,11.60
2019-04-27T20:14:57.631Z,11.50
2019-04-27T20:17:28.231Z,11.50
2019-04-27T20:19:57.850Z,11.40
2019-04-27T20:22:26.773Z,11.30
2019-04-27T20:24:55.660Z,11.20
2019-04-27T20:27:24.721Z,11.10
2019-04-27T20:29:53.665Z,11.10
2019-04-27T20:32:22.517Z,11.00
2019-04-27T20:34:51.863Z,11.10
2019-04-27T20:37:21.102Z,11.20
2019-04-27T20:39:51.451Z,11.20
2019-04-27T20:42:21.343Z,11.20
2019-04-27T20:44:51.636Z,11.20
2019-04-27T20:47:20.671Z,11.20
2019-04-27T20:49:49.598Z,11.30
2019-04-27T20:52:50.084Z,11.40
2019-04-27T20:55:19.048Z,11.40
2019-04-27T20:57:58.688Z,11.40
2019-04-27T21:00:21.952Z,11.30
2019-04-27T21:02:57.651Z,11.20
2019-04-27T21:05:37.490Z,11.20
2019-04-27T21:08:07.294Z,11.20
2019-04-27T21:10:36.046Z,11.10
2019-04-27T21:13:05.214Z,11.10
2019-04-27T21:15:34.399Z,11.10
2019-04-27T21:18:03.263Z,11.10
2019-04-27T21:20:32.182Z,11.10
2019-04-27T21:23:01.904Z,11.10
2019-04-27T21:25:31.509Z,11.00
2019-04-27T21:28:14.615Z,11.00
2019-04-27T21:30:32.928Z,11.00
2019-04-27T21:33:01.767Z,11.00
2019-04-27T21:35:30.550Z,11.00
2019-04-27T21:38:01.156Z,11.00
2019-04-27T21:40:30.703Z,10.90
2019-04-27T21:43:01.155Z,10.90
2019-04-27T21:45:31.747Z,11.00
2019-04-27T21:48:00.966Z,11.00
2019-04-27T21:50:31.469Z,10.90
2019-04-27T21:53:12.148Z,10.90
2019-04-27T21:55:42.223Z,10.90
2019-04-27T21:58:11.877Z,10.90
2019-04-27T22:01:03.284Z,11.00
2019-04-27T22:03:32.427Z,11.10
2019-04-27T22:06:01.838Z,11.00
2019-04-27T22:08:31.873Z,10.90
2019-04-27T22:11:01.501Z,10.80
2019-04-27T22:13:31.269Z,10.90
2019-04-27T22:16:00.228Z,10.80
2019-04-27T22:18:29.298Z,10.70
2019-04-27T22:21:01.312Z,10.80
2019-04-27T22:23:42.947Z,10.90
2019-04-27T22:26:11.744Z,11.00
2019-04-27T22:28:48.737Z,11.00
2019-04-27T22:31:12.586Z,11.00
2019-04-27T22:33:42.971Z,10.90
2019-04-27T22:36:11.968Z,10.90
2019-04-27T22:38:41.369Z,10.80
2019-04-27T22:41:26.090Z,10.90
2019-04-27T22:44:12.067Z,10.80
2019-04-27T22:46:42.594Z,10.90
2019-04-27T22:49:11.374Z,10.80
2019-04-27T22:51:41.152Z,10.70
2019-04-27T22:54:11.588Z,10.70
2019-04-27T22:56:42.369Z,10.70
2019-04-27T22:59:17.910Z,10.70
2019-04-27T23:02:24.566Z,10.60
2019-04-27T23:05:01.676Z,10.50
2019-04-27T23:07:31.550Z,10.40
2019-04-27T23:10:01.613Z,10.50
2019-04-27T23:12:31.676Z,10.60
2019-04-27T23:15:01.128Z,10.60
2019-04-27T23:17:44.826Z,10.60
2019-04-27T23:20:13.982Z,10.70
2019-04-27T23:22:42.751Z,10.70
2019-04-27T23:25:12.020Z,10.60
2019-04-27T23:27:41.158Z,10.60
2019-04-27T23:30:11.405Z,10.70
2019-04-27T23:32:43.462Z,10.70
2019-04-27T23:35:12.909Z,10.70
2019-04-27T23:37:41.758Z,10.60
2019-04-27T23:40:11.279Z,10.60
2019-04-27T23:42:41.665Z,10.70
2019-04-27T23:45:10.791Z,10.60
2019-04-27T23:47:39.655Z,10.70
2019-04-27T23:50:10.823Z,10.60
2019-04-27T23:52:57.923Z,10.50
2019-04-27T23:55:30.976Z,10.50
2019-04-27T23:58:00.271Z,10.50
